sensor_id;sensor_type;location;lat;lon;timestamp;pressure;altitude;pressure_sealevel;temperature;humidity
8334;BME280;4204;43.004;23.052;2023-02-13T00:00:25;95461.16;;;1.04;100.00
8334;BME280;4204;43.004;23.052;2023-02-13T00:02:52;95470.00;;;1.09;100.00
8334;BME280;4204;43.004;23.052;2023-02-13T00:05:20;95479.41;;;1.17;100.00
8334;BME280;4204;43.004;23.052;2023-02-13T00:07:49;95478.28;;;1.31;100.00
8334;BME280;4204;43.004;23.052;2023-02-13T00:10:17;95473.31;;;1.23;100.00
8334;BME280;4204;43.004;23.052;2023-02-13T00:12:45;95485.59;;;1.22;100.00
8334;BME280;4204;43.004;23.052;2023-02-13T00:15:13;95471.13;;;1.20;100.00
8334;BME280;4204;43.004;23.052;2023-02-13T00:17:40;95476.88;;;1.04;100.00
8334;BME280;4204;43.004;23.052;2023-02-13T00:20:09;95476.19;;;0.90;100.00
8334;BME280;4204;43.004;23.052;2023-02-13T00:22:38;95480.75;;;1.01;100.00
8334;BME280;4204;43.004;23.052;2023-02-13T00:25:08;95478.19;;;0.95;100.00
8334;BME280;4204;43.004;23.052;2023-02-13T00:27:36;95482.13;;;1.04;100.00
8334;BME280;4204;43.004;23.052;2023-02-13T00:30:04;95479.25;;;1.12;100.00
8334;BME280;4204;43.004;23.052;2023-02-13T00:32:32;95485.59;;;1.22;100.00
8334;BME280;4204;43.004;23.052;2023-02-13T00:35:00;95478.78;;;1.21;100.00
8334;BME280;4204;43.004;23.052;2023-02-13T00:37:29;95489.25;;;1.21;100.00
8334;BME280;4204;43.004;23.052;2023-02-13T00:39:57;95486.03;;;1.19;100.00
8334;BME280;4204;43.004;23.052;2023-02-13T00:42:26;95476.88;;;1.28;100.00
8334;BME280;4204;43.004;23.052;2023-02-13T00:44:54;95479.34;;;1.23;100.00
8334;BME280;4204;43.004;23.052;2023-02-13T00:47:22;95484.69;;;1.10;100.00
8334;BME280;4204;43.004;23.052;2023-02-13T00:49:50;95486.47;;;1.16;100.00
8334;BME280;4204;43.004;23.052;2023-02-13T00:52:18;95494.75;;;1.13;100.00
8334;BME280;4204;43.004;23.052;2023-02-13T00:54:45;95496.22;;;1.09;100.00
8334;BME280;4204;43.004;23.052;2023-02-13T00:57:13;95507.69;;;1.08;100.00
8334;BME280;4204;43.004;23.052;2023-02-13T00:59:43;95496.22;;;1.09;100.00
8334;BME280;4204;43.004;23.052;2023-02-13T01:02:11;95466.13;;;0.87;100.00
8334;BME280;4204;43.004;23.052;2023-02-13T01:04:39;95491.22;;;1.01;100.00
8334;BME280;4204;43.004;23.052;2023-02-13T01:07:07;95498.97;;;1.14;100.00
8334;BME280;4204;43.004;23.052;2023-02-13T01:09:34;95491.81;;;1.03;100.00
8334;BME280;4204;43.004;23.052;2023-02-13T01:12:02;95500.00;;;1.13;100.00
8334;BME280;4204;43.004;23.052;2023-02-13T01:14:30;95500.56;;;1.22;100.00
8334;BME280;4204;43.004;23.052;2023-02-13T01:16:59;95498.03;;;1.09;100.00
8334;BME280;4204;43.004;23.052;2023-02-13T01:19:27;95500.75;;;0.89;100.00
8334;BME280;4204;43.004;23.052;2023-02-13T01:21:54;95495.69;;;0.94;100.00
8334;BME280;4204;43.004;23.052;2023-02-13T01:24:22;95495.03;;;1.05;100.00
8334;BME280;4204;43.004;23.052;2023-02-13T01:26:50;95498.28;;;1.01;100.00
8334;BME280;4204;43.004;23.052;2023-02-13T01:29:18;95481.09;;;0.80;100.00
8334;BME280;4204;43.004;23.052;2023-02-13T01:31:46;95492.72;;;0.91;100.00
8334;BME280;4204;43.004;23.052;2023-02-13T01:34:15;95494.22;;;1.05;100.00
8334;BME280;4204;43.004;23.052;2023-02-13T01:36:43;95493.09;;;0.94;100.00
8334;BME280;4204;43.004;23.052;2023-02-13T01:39:11;95491.94;;;0.83;100.00
8334;BME280;4204;43.004;23.052;2023-02-13T01:41:39;95497.56;;;0.87;100.00
8334;BME280;4204;43.004;23.052;2023-02-13T01:47:08;95496.47;;;0.70;100.00
8334;BME280;4204;43.004;23.052;2023-02-13T01:49:39;95493.06;;;0.63;100.00
8334;BME280;4204;43.004;23.052;2023-02-13T01:52:08;95484.38;;;0.69;100.00
8334;BME280;4204;43.004;23.052;2023-02-13T01:54:38;95488.31;;;0.85;100.00
8334;BME280;4204;43.004;23.052;2023-02-13T01:57:11;95496.94;;;0.92;100.00
8334;BME280;4204;43.004;23.052;2023-02-13T01:59:43;95490.13;;;0.84;100.00
8334;BME280;4204;43.004;23.052;2023-02-13T02:02:13;95496.19;;;0.85;100.00
8334;BME280;4204;43.004;23.052;2023-02-13T02:04:43;95498.69;;;0.98;100.00
8334;BME280;4204;43.004;23.052;2023-02-13T02:07:19;95490.47;;;0.94;100.00
8334;BME280;4204;43.004;23.052;2023-02-13T02:09:49;95489.94;;;0.79;100.00
8334;BME280;4204;43.004;23.052;2023-02-13T02:12:24;95496.28;;;0.96;100.00
8334;BME280;4204;43.004;23.052;2023-02-13T02:14:54;95499.47;;;0.73;100.00
8334;BME280;4204;43.004;23.052;2023-02-13T02:17:25;95502.47;;;0.77;100.00
8334;BME280;4204;43.004;23.052;2023-02-13T02:20:00;95501.19;;;0.86;100.00
8334;BME280;4204;43.004;23.052;2023-02-13T02:22:51;95501.53;;;0.96;100.00
8334;BME280;4204;43.004;23.052;2023-02-13T02:25:49;95508.63;;;0.89;100.00
8334;BME280;4204;43.004;23.052;2023-02-13T02:28:31;95517.47;;;0.95;100.00
8334;BME280;4204;43.004;23.052;2023-02-13T02:31:40;95517.38;;;0.76;100.00
8334;BME280;4204;43.004;23.052;2023-02-13T02:34:18;95512.09;;;0.83;100.00
8334;BME280;4204;43.004;23.052;2023-02-13T02:37:04;95510.84;;;0.92;100.00
8334;BME280;4204;43.004;23.052;2023-02-13T02:39:41;95510.19;;;0.97;100.00
8334;BME280;4204;43.004;23.052;2023-02-13T02:42:18;95512.34;;;1.06;100.00
8334;BME280;4204;43.004;23.052;2023-02-13T02:44:55;95509.47;;;1.14;100.00
8334;BME280;4204;43.004;23.052;2023-02-13T02:47:31;95521.56;;;1.15;100.00
8334;BME280;4204;43.004;23.052;2023-02-13T02:50:27;95513.47;;;1.17;100.00
8334;BME280;4204;43.004;23.052;2023-02-13T02:53:07;95526.44;;;1.12;100.00
8334;BME280;4204;43.004;23.052;2023-02-13T02:55:43;95531.00;;;1.16;100.00
8334;BME280;4204;43.004;23.052;2023-02-13T02:58:19;95527.81;;;1.14;100.00
8334;BME280;4204;43.004;23.052;2023-02-13T03:01:09;95518.97;;;1.09;100.00
8334;BME280;4204;43.004;23.052;2023-02-13T03:03:58;95516.38;;;1.09;100.00
8334;BME280;4204;43.004;23.052;2023-02-13T03:06:45;95525.56;;;1.18;100.00
8334;BME280;4204;43.004;23.052;2023-02-13T03:09:20;95518.81;;;1.28;100.00
8334;BME280;4204;43.004;23.052;2023-02-13T03:12:07;95525.41;;;1.37;100.00
8334;BME280;4204;43.004;23.052;2023-02-13T03:14:53;95521.72;;;1.45;100.00
8334;BME280;4204;43.004;23.052;2023-02-13T03:17:21;95533.44;;;1.42;100.00
8334;BME280;4204;43.004;23.052;2023-02-13T03:20:13;95530.97;;;1.47;100.00
8334;BME280;4204;43.004;23.052;2023-02-13T03:23:12;95533.22;;;1.44;100.00
8334;BME280;4204;43.004;23.052;2023-02-13T03:28:37;95532.41;;;1.43;100.00
8334;BME280;4204;43.004;23.052;2023-02-13T03:31:30;95526.75;;;1.46;100.00
8334;BME280;4204;43.004;23.052;2023-02-13T03:34:02;95516.28;;;1.46;100.00
8334;BME280;4204;43.004;23.052;2023-02-13T03:36:40;95511.09;;;1.40;100.00
8334;BME280;4204;43.004;23.052;2023-02-13T03:39:37;95520.72;;;1.46;100.00
8334;BME280;4204;43.004;23.052;2023-02-13T03:42:14;95517.31;;;1.39;100.00
8334;BME280;4204;43.004;23.052;2023-02-13T03:44:48;95510.28;;;1.39;100.00
8334;BME280;4204;43.004;23.052;2023-02-13T03:47:40;95530.25;;;1.40;100.00
8334;BME280;4204;43.004;23.052;2023-02-13T03:50:10;95520.06;;;1.26;100.00
8334;BME280;4204;43.004;23.052;2023-02-13T03:52:44;95529.66;;;1.38;100.00
8334;BME280;4204;43.004;23.052;2023-02-13T03:55:16;95526.59;;;1.41;100.00
8334;BME280;4204;43.004;23.052;2023-02-13T03:58:06;95527.19;;;1.43;100.00
8334;BME280;4204;43.004;23.052;2023-02-13T04:00:55;95534.78;;;1.51;100.00
8334;BME280;4204;43.004;23.052;2023-02-13T04:03:26;95538.03;;;1.47;100.00
8334;BME280;4204;43.004;23.052;2023-02-13T04:06:00;95530.56;;;1.50;100.00
8334;BME280;4204;43.004;23.052;2023-02-13T04:08:32;95539.88;;;1.46;100.00
8334;BME280;4204;43.004;23.052;2023-02-13T04:11:06;95543.53;;;1.39;100.00
8334;BME280;4204;43.004;23.052;2023-02-13T04:13:41;95533.91;;;1.33;100.00
8334;BME280;4204;43.004;23.052;2023-02-13T04:16:14;95545.38;;;1.38;100.00
8334;BME280;4204;43.004;23.052;2023-02-13T04:18:43;95539.75;;;1.35;100.00
8334;BME280;4204;43.004;23.052;2023-02-13T04:21:11;95549.59;;;1.39;100.00
8334;BME280;4204;43.004;23.052;2023-02-13T04:23:41;95544.66;;;1.49;100.00
8334;BME280;4204;43.004;23.052;2023-02-13T04:26:15;95536.84;;;1.43;100.00
8334;BME280;4204;43.004;23.052;2023-02-13T04:28:43;95539.16;;;1.33;100.00
8334;BME280;4204;43.004;23.052;2023-02-13T04:31:11;95532.69;;;1.35;100.00
8334;BME280;4204;43.004;23.052;2023-02-13T04:33:39;95522.06;;;1.30;100.00
8334;BME280;4204;43.004;23.052;2023-02-13T04:36:07;95536.94;;;1.36;100.00
8334;BME280;4204;43.004;23.052;2023-02-13T04:38:35;95517.91;;;1.16;100.00
8334;BME280;4204;43.004;23.052;2023-02-13T04:41:04;95533.53;;;1.29;100.00
8334;BME280;4204;43.004;23.052;2023-02-13T04:43:32;95521.28;;;1.23;100.00
8334;BME280;4204;43.004;23.052;2023-02-13T04:45:59;95535.31;;;1.35;100.00
8334;BME280;4204;43.004;23.052;2023-02-13T04:48:27;95545.78;;;1.35;100.00
8334;BME280;4204;43.004;23.052;2023-02-13T04:50:54;95545.78;;;1.35;100.00
8334;BME280;4204;43.004;23.052;2023-02-13T04:53:22;95542.16;;;1.36;100.00
8334;BME280;4204;43.004;23.052;2023-02-13T04:55:51;95547.50;;;1.48;100.00
8334;BME280;4204;43.004;23.052;2023-02-13T04:58:20;95547.69;;;1.53;100.00
8334;BME280;4204;43.004;23.052;2023-02-13T05:00:47;95550.94;;;1.48;100.00
8334;BME280;4204;43.004;23.052;2023-02-13T05:03:15;95537.56;;;1.32;100.00
8334;BME280;4204;43.004;23.052;2023-02-13T05:05:43;95546.38;;;1.37;100.00
8334;BME280;4204;43.004;23.052;2023-02-13T05:08:11;95554.69;;;1.34;100.00
8334;BME280;4204;43.004;23.052;2023-02-13T05:10:38;95552.88;;;1.28;100.00
8334;BME280;4204;43.004;23.052;2023-02-13T05:13:06;95547.28;;;1.25;100.00
8334;BME280;4204;43.004;23.052;2023-02-13T05:15:35;95553.06;;;1.33;100.00
8334;BME280;4204;43.004;23.052;2023-02-13T05:18:03;95540.06;;;1.20;100.00
8334;BME280;4204;43.004;23.052;2023-02-13T05:20:31;95545.84;;;1.29;100.00
8334;BME280;4204;43.004;23.052;2023-02-13T05:22:59;95560.94;;;1.33;100.00
8334;BME280;4204;43.004;23.052;2023-02-13T05:25:44;95559.75;;;1.29;100.00
8334;BME280;4204;43.004;23.052;2023-02-13T05:28:11;95558.63;;;1.19;100.00
8334;BME280;4204;43.004;23.052;2023-02-13T05:30:55;95563.22;;;1.23;100.00
8334;BME280;4204;43.004;23.052;2023-02-13T05:33:22;95561.00;;;1.20;100.00
8334;BME280;4204;43.004;23.052;2023-02-13T05:35:50;95565.25;;;1.21;100.00
8334;BME280;4204;43.004;23.052;2023-02-13T05:38:18;95566.66;;;1.24;100.00
8334;BME280;4204;43.004;23.052;2023-02-13T05:40:46;95565.41;;;1.26;100.00
8334;BME280;4204;43.004;23.052;2023-02-13T05:43:13;95563.44;;;1.22;100.00
8334;BME280;4204;43.004;23.052;2023-02-13T05:45:41;95573.13;;;1.21;100.00
8334;BME280;4204;43.004;23.052;2023-02-13T05:48:10;95555.16;;;1.25;100.00
8334;BME280;4204;43.004;23.052;2023-02-13T05:50:38;95577.69;;;1.32;100.00
8334;BME280;4204;43.004;23.052;2023-02-13T05:53:06;95578.69;;;1.31;100.00
8334;BME280;4204;43.004;23.052;2023-02-13T05:55:33;95576.94;;;1.25;100.00
8334;BME280;4204;43.004;23.052;2023-02-13T05:58:01;95585.00;;;1.24;100.00
8334;BME280;4204;43.004;23.052;2023-02-13T06:00:29;95579.06;;;1.35;100.00
8334;BME280;4204;43.004;23.052;2023-02-13T06:02:57;95589.00;;;1.26;100.00
8334;BME280;4204;43.004;23.052;2023-02-13T06:05:26;95590.22;;;1.30;100.00
8334;BME280;4204;43.004;23.052;2023-02-13T06:07:54;95558.69;;;1.06;100.00
8334;BME280;4204;43.004;23.052;2023-02-13T06:10:22;95578.00;;;1.18;100.00
8334;BME280;4204;43.004;23.052;2023-02-13T06:12:49;95576.34;;;1.23;100.00
8334;BME280;4204;43.004;23.052;2023-02-13T06:15:17;95583.38;;;1.23;100.00
8334;BME280;4204;43.004;23.052;2023-02-13T06:17:45;95583.81;;;1.20;100.00
8334;BME280;4204;43.004;23.052;2023-02-13T06:20:13;95585.00;;;1.24;100.00
8334;BME280;4204;43.004;23.052;2023-02-13T06:22:42;95578.31;;;1.28;100.00
8334;BME280;4204;43.004;23.052;2023-02-13T06:25:09;95583.59;;;1.21;100.00
8334;BME280;4204;43.004;23.052;2023-02-13T06:27:38;95581.78;;;1.22;100.00
8334;BME280;4204;43.004;23.052;2023-02-13T06:30:07;95574.56;;;1.17;100.00
8334;BME280;4204;43.004;23.052;2023-02-13T06:32:35;95580.38;;;1.19;100.00
8334;BME280;4204;43.004;23.052;2023-02-13T06:35:03;95598.88;;;1.24;100.00
8334;BME280;4204;43.004;23.052;2023-02-13T06:37:31;95592.28;;;1.22;100.00
8334;BME280;4204;43.004;23.052;2023-02-13T06:40:00;95590.09;;;1.12;100.00
8334;BME280;4204;43.004;23.052;2023-02-13T06:42:28;95592.97;;;1.04;100.00
8334;BME280;4204;43.004;23.052;2023-02-13T06:44:56;95596.16;;;1.13;100.00
8334;BME280;4204;43.004;23.052;2023-02-13T06:47:24;95587.66;;;1.17;100.00
8334;BME280;4204;43.004;23.052;2023-02-13T06:49:51;95589.69;;;1.15;100.00
8334;BME280;4204;43.004;23.052;2023-02-13T06:52:19;95568.41;;;1.05;100.00
8334;BME280;4204;43.004;23.052;2023-02-13T06:54:47;95580.84;;;1.10;100.00
8334;BME280;4204;43.004;23.052;2023-02-13T06:57:16;95588.84;;;1.21;100.00
8334;BME280;4204;43.004;23.052;2023-02-13T06:59:44;95595.53;;;1.17;100.00
8334;BME280;4204;43.004;23.052;2023-02-13T07:02:12;95598.31;;;1.22;100.00
8334;BME280;4204;43.004;23.052;2023-02-13T07:04:40;95595.28;;;1.25;100.00
8334;BME280;4204;43.004;23.052;2023-02-13T07:07:08;95599.47;;;1.26;100.00
8334;BME280;4204;43.004;23.052;2023-02-13T07:09:36;95599.47;;;1.26;100.00
8334;BME280;4204;43.004;23.052;2023-02-13T07:12:05;95594.50;;;1.18;100.00
8334;BME280;4204;43.004;23.052;2023-02-13T07:14:35;95589.47;;;1.17;100.00
8334;BME280;4204;43.004;23.052;2023-02-13T07:17:02;95597.91;;;1.25;100.00
8334;BME280;4204;43.004;23.052;2023-02-13T07:19:30;95598.06;;;1.30;100.00
8334;BME280;4204;43.004;23.052;2023-02-13T07:21:58;95601.69;;;1.29;100.00
8334;BME280;4204;43.004;23.052;2023-02-13T07:24:26;95596.63;;;1.34;100.00
8334;BME280;4204;43.004;23.052;2023-02-13T07:26:54;95599.19;;;1.41;100.00
8334;BME280;4204;43.004;23.052;2023-02-13T07:29:21;95606.28;;;1.40;100.00
8334;BME280;4204;43.004;23.052;2023-02-13T07:31:51;95589.72;;;1.40;100.00
8334;BME280;4204;43.004;23.052;2023-02-13T07:34:18;95595.97;;;1.39;100.00
8334;BME280;4204;43.004;23.052;2023-02-13T07:36:46;95599.84;;;1.36;100.00
8334;BME280;4204;43.004;23.052;2023-02-13T07:39:14;95597.03;;;1.31;100.00
8334;BME280;4204;43.004;23.052;2023-02-13T07:41:41;95598.81;;;1.37;100.00
8334;BME280;4204;43.004;23.052;2023-02-13T07:44:09;95606.84;;;1.42;100.00
8334;BME280;4204;43.004;23.052;2023-02-13T07:46:37;95608.44;;;1.43;100.00
8334;BME280;4204;43.004;23.052;2023-02-13T07:49:06;95613.66;;;1.50;100.00
8334;BME280;4204;43.004;23.052;2023-02-13T07:51:34;95587.78;;;1.29;100.00
8334;BME280;4204;43.004;23.052;2023-02-13T07:54:02;95608.63;;;1.48;100.00
8334;BME280;4204;43.004;23.052;2023-02-13T07:56:30;95606.75;;;1.55;100.00
8334;BME280;4204;43.004;23.052;2023-02-13T07:58:57;95609.09;;;1.63;100.00
8334;BME280;4204;43.004;23.052;2023-02-13T08:01:25;95600.81;;;1.67;100.00
8334;BME280;4204;43.004;23.052;2023-02-13T08:03:53;95611.00;;;1.81;100.00
8334;BME280;4204;43.004;23.052;2023-02-13T08:06:22;95602.03;;;1.89;100.00
8334;BME280;4204;43.004;23.052;2023-02-13T08:08:50;95602.09;;;1.82;100.00
8334;BME280;4204;43.004;23.052;2023-02-13T08:11:38;95606.16;;;1.78;100.00
8334;BME280;4204;43.004;23.052;2023-02-13T08:14:21;95604.34;;;1.79;100.00
8334;BME280;4204;43.004;23.052;2023-02-13T08:16:49;95594.31;;;1.76;100.00
8334;BME280;4204;43.004;23.052;2023-02-13T08:19:17;95599.16;;;1.72;100.00
8334;BME280;4204;43.004;23.052;2023-02-13T08:21:46;95590.41;;;1.78;100.00
8334;BME280;4204;43.004;23.052;2023-02-13T08:24:14;95604.72;;;1.82;100.00
8334;BME280;4204;43.004;23.052;2023-02-13T08:26:42;95597.81;;;1.88;100.00
8334;BME280;4204;43.004;23.052;2023-02-13T08:29:10;95598.78;;;1.93;100.00
8334;BME280;4204;43.004;23.052;2023-02-13T08:31:38;95600.41;;;1.94;100.00
8334;BME280;4204;43.004;23.052;2023-02-13T08:34:05;95599.22;;;1.90;100.00
8334;BME280;4204;43.004;23.052;2023-02-13T08:36:33;95604.84;;;1.94;100.00
8334;BME280;4204;43.004;23.052;2023-02-13T08:39:02;95584.25;;;1.91;100.00
8334;BME280;4204;43.004;23.052;2023-02-13T08:41:30;95594.09;;;1.95;100.00
8334;BME280;4204;43.004;23.052;2023-02-13T08:43:58;95584.72;;;1.88;100.00
8334;BME280;4204;43.004;23.052;2023-02-13T08:46:26;95577.78;;;1.93;100.00
8334;BME280;4204;43.004;23.052;2023-02-13T08:48:53;95591.44;;;2.02;100.00
8334;BME280;4204;43.004;23.052;2023-02-13T08:51:21;95586.94;;;2.09;100.00
8334;BME280;4204;43.004;23.052;2023-02-13T08:53:49;95600.31;;;2.01;100.00
8334;BME280;4204;43.004;23.052;2023-02-13T08:56:18;95599.31;;;2.20;100.00
8334;BME280;4204;43.004;23.052;2023-02-13T08:58:47;95599.31;;;2.20;100.00
8334;BME280;4204;43.004;23.052;2023-02-13T09:01:15;95600.06;;;2.27;100.00
8334;BME280;4204;43.004;23.052;2023-02-13T09:03:43;95594.22;;;2.25;100.00
8334;BME280;4204;43.004;23.052;2023-02-13T09:06:11;95595.75;;;2.32;100.00
8334;BME280;4204;43.004;23.052;2023-02-13T09:08:38;95576.72;;;2.19;100.00
8334;BME280;4204;43.004;23.052;2023-02-13T09:11:08;95599.56;;;2.18;100.00
8334;BME280;4204;43.004;23.052;2023-02-13T09:13:38;95603.69;;;2.26;100.00
8334;BME280;4204;43.004;23.052;2023-02-13T09:16:06;95608.09;;;2.32;100.00
8334;BME280;4204;43.004;23.052;2023-02-13T09:18:35;95605.31;;;2.27;100.00
8334;BME280;4204;43.004;23.052;2023-02-13T09:21:05;95600.19;;;2.32;100.00
8334;BME280;4204;43.004;23.052;2023-02-13T09:23:40;95595.69;;;2.39;100.00
8334;BME280;4204;43.004;23.052;2023-02-13T09:26:14;95602.75;;;2.38;100.00
8334;BME280;4204;43.004;23.052;2023-02-13T09:28:44;95598.38;;;2.51;100.00
8334;BME280;4204;43.004;23.052;2023-02-13T09:31:13;95587.25;;;2.37;100.00
8334;BME280;4204;43.004;23.052;2023-02-13T09:33:42;95603.28;;;2.47;100.00
8334;BME280;4204;43.004;23.052;2023-02-13T09:36:12;95597.59;;;2.50;100.00
8334;BME280;4204;43.004;23.052;2023-02-13T09:38:40;95596.44;;;2.64;100.00
8334;BME280;4204;43.004;23.052;2023-02-13T09:41:11;95590.66;;;2.74;100.00
8334;BME280;4204;43.004;23.052;2023-02-13T09:43:45;95592.25;;;2.75;100.00
8334;BME280;4204;43.004;23.052;2023-02-13T09:46:18;95583.56;;;2.74;100.00
8334;BME280;4204;43.004;23.052;2023-02-13T09:48:50;95587.06;;;2.86;100.00
8334;BME280;4204;43.004;23.052;2023-02-13T09:51:21;95575.63;;;2.81;100.00
8334;BME280;4204;43.004;23.052;2023-02-13T09:53:55;95568.94;;;2.96;100.00
8334;BME280;4204;43.004;23.052;2023-02-13T09:56:36;95566.69;;;3.00;100.00
8334;BME280;4204;43.004;23.052;2023-02-13T09:59:28;95563.50;;;3.09;100.00
8334;BME280;4204;43.004;23.052;2023-02-13T10:02:02;95570.81;;;3.07;100.00
8334;BME280;4204;43.004;23.052;2023-02-13T10:04:47;95556.63;;;3.08;100.00
8334;BME280;4204;43.004;23.052;2023-02-13T10:07:22;95559.84;;;3.10;100.00
8334;BME280;4204;43.004;23.052;2023-02-13T10:10:00;95559.41;;;3.13;100.00
8334;BME280;4204;43.004;23.052;2023-02-13T10:12:36;95559.31;;;3.20;100.00
8334;BME280;4204;43.004;23.052;2023-02-13T10:15:19;95554.38;;;3.23;100.00
8334;BME280;4204;43.004;23.052;2023-02-13T10:17:53;95540.66;;;3.21;100.00
8334;BME280;4204;43.004;23.052;2023-02-13T10:20:26;95522.59;;;3.13;100.00
8334;BME280;4204;43.004;23.052;2023-02-13T10:22:59;95535.22;;;3.35;100.00
8334;BME280;4204;43.004;23.052;2023-02-13T10:25:38;95530.31;;;3.38;100.00
8334;BME280;4204;43.004;23.052;2023-02-13T10:28:11;95532.25;;;3.43;100.00
8334;BME280;4204;43.004;23.052;2023-02-13T10:30:47;95528.97;;;3.47;100.00
8334;BME280;4204;43.004;23.052;2023-02-13T10:33:19;95528.84;;;3.54;100.00
8334;BME280;4204;43.004;23.052;2023-02-13T10:36:03;95523.69;;;3.59;100.00
8334;BME280;4204;43.004;23.052;2023-02-13T10:38:37;95516.72;;;3.64;100.00
8334;BME280;4204;43.004;23.052;2023-02-13T10:41:23;95509.75;;;3.70;100.00
8334;BME280;4204;43.004;23.052;2023-02-13T10:44:08;95505.41;;;3.87;100.00
8334;BME280;4204;43.004;23.052;2023-02-13T10:46:50;95499.31;;;3.98;100.00
8334;BME280;4204;43.004;23.052;2023-02-13T10:49:30;95500.34;;;4.08;100.00
8334;BME280;4204;43.004;23.052;2023-02-13T10:52:08;95493.81;;;4.11;100.00
8334;BME280;4204;43.004;23.052;2023-02-13T10:54:53;95499.88;;;4.00;100.00
8334;BME280;4204;43.004;23.052;2023-02-13T10:57:27;95493.50;;;4.07;100.00
8334;BME280;4204;43.004;23.052;2023-02-13T11:00:07;95488.44;;;4.18;100.00
8334;BME280;4204;43.004;23.052;2023-02-13T11:02:39;95480.97;;;4.26;100.00
8334;BME280;4204;43.004;23.052;2023-02-13T11:05:14;95486.44;;;4.36;100.00
8334;BME280;4204;43.004;23.052;2023-02-13T11:07:44;95475.91;;;4.36;100.00
8334;BME280;4204;43.004;23.052;2023-02-13T11:10:15;95468.56;;;4.38;100.00
8334;BME280;4204;43.004;23.052;2023-02-13T11:12:43;95464.44;;;4.42;100.00
8334;BME280;4204;43.004;23.052;2023-02-13T11:15:21;95472.28;;;4.54;100.00
8334;BME280;4204;43.004;23.052;2023-02-13T11:17:53;95467.59;;;4.56;100.00
8334;BME280;4204;43.004;23.052;2023-02-13T11:20:26;95468.50;;;4.61;100.00
8334;BME280;4204;43.004;23.052;2023-02-13T11:22:55;95464.94;;;4.56;100.00
8334;BME280;4204;43.004;23.052;2023-02-13T11:25:25;95458.59;;;4.68;100.00
8334;BME280;4204;43.004;23.052;2023-02-13T11:28:06;95443.09;;;4.72;100.00
8334;BME280;4204;43.004;23.052;2023-02-13T11:30:36;95450.31;;;4.76;100.00
8334;BME280;4204;43.004;23.052;2023-02-13T11:33:20;95443.31;;;4.82;100.00
8334;BME280;4204;43.004;23.052;2023-02-13T11:35:48;95437.94;;;4.77;100.00
8334;BME280;4204;43.004;23.052;2023-02-13T11:38:21;95427.50;;;4.99;100.00
8334;BME280;4204;43.004;23.052;2023-02-13T11:40:51;95420.53;;;4.92;100.00
8334;BME280;4204;43.004;23.052;2023-02-13T11:43:23;95419.66;;;5.04;100.00
8334;BME280;4204;43.004;23.052;2023-02-13T11:46:02;95414.97;;;5.06;100.00
8334;BME280;4204;43.004;23.052;2023-02-13T11:48:32;95418.41;;;5.06;100.00
8334;BME280;4204;43.004;23.052;2023-02-13T11:51:00;95414.09;;;5.17;100.00
8334;BME280;4204;43.004;23.052;2023-02-13T11:53:29;95411.50;;;5.22;100.00
8334;BME280;4204;43.004;23.052;2023-02-13T11:56:07;95406.38;;;5.32;100.00
8334;BME280;4204;43.004;23.052;2023-02-13T11:58:35;95403.38;;;5.23;100.00
8334;BME280;4204;43.004;23.052;2023-02-13T12:01:25;95392.66;;;5.30;100.00
8334;BME280;4204;43.004;23.052;2023-02-13T12:04:16;95395.50;;;5.45;100.00
8334;BME280;4204;43.004;23.052;2023-02-13T12:06:59;95402.88;;;5.43;100.00
8334;BME280;4204;43.004;23.052;2023-02-13T12:09:28;95393.84;;;5.39;100.00
8334;BME280;4204;43.004;23.052;2023-02-13T12:11:59;95394.16;;;5.42;100.00
8334;BME280;4204;43.004;23.052;2023-02-13T12:14:30;95395.47;;;5.40;100.00
8334;BME280;4204;43.004;23.052;2023-02-13T12:17:02;95388.28;;;5.57;100.00
8334;BME280;4204;43.004;23.052;2023-02-13T12:19:38;95390.38;;;5.55;100.00
8334;BME280;4204;43.004;23.052;2023-02-13T12:22:25;95380.63;;;5.55;100.00
8334;BME280;4204;43.004;23.052;2023-02-13T12:28:12;95373.13;;;5.69;100.00
8334;BME280;4204;43.004;23.052;2023-02-13T12:31:18;95368.50;;;5.76;100.00
8334;BME280;4204;43.004;23.052;2023-02-13T12:37:08;95363.16;;;5.71;100.00
8334;BME280;4204;43.004;23.052;2023-02-13T12:39:46;95362.03;;;5.67;100.00
8334;BME280;4204;43.004;23.052;2023-02-13T12:42:25;95355.53;;;5.74;100.00
8334;BME280;4204;43.004;23.052;2023-02-13T12:45:09;95344.72;;;5.76;100.00
8334;BME280;4204;43.004;23.052;2023-02-13T12:47:51;95342.72;;;5.83;100.00
8334;BME280;4204;43.004;23.052;2023-02-13T12:50:36;95333.84;;;5.89;100.00
8334;BME280;4204;43.004;23.052;2023-02-13T12:53:20;95341.78;;;5.89;100.00
8334;BME280;4204;43.004;23.052;2023-02-13T12:56:04;95338.25;;;5.84;100.00
8334;BME280;4204;43.004;23.052;2023-02-13T12:58:51;95337.91;;;5.80;100.00
8334;BME280;4204;43.004;23.052;2023-02-13T13:01:44;95328.09;;;5.75;100.00
8334;BME280;4204;43.004;23.052;2023-02-13T13:04:20;95331.59;;;5.81;100.00
8334;BME280;4204;43.004;23.052;2023-02-13T13:07:06;95337.91;;;5.80;100.00
8334;BME280;4204;43.004;23.052;2023-02-13T13:10:02;95330.69;;;5.92;100.00
8334;BME280;4204;43.004;23.052;2023-02-13T13:12:45;95323.03;;;5.91;100.00
8334;BME280;4204;43.004;23.052;2023-02-13T13:15:24;95324.38;;;5.93;100.00
8334;BME280;4204;43.004;23.052;2023-02-13T13:18:09;95334.25;;;6.03;100.00
8334;BME280;4204;43.004;23.052;2023-02-13T13:20:50;95323.94;;;6.01;100.00
8334;BME280;4204;43.004;23.052;2023-02-13T13:23:21;95323.97;;;6.06;100.00
8334;BME280;4204;43.004;23.052;2023-02-13T13:26:00;95318.22;;;6.09;100.00
8334;BME280;4204;43.004;23.052;2023-02-13T13:28:34;95313.69;;;6.05;100.00
8334;BME280;4204;43.004;23.052;2023-02-13T13:31:04;95310.63;;;5.91;100.00
8334;BME280;4204;43.004;23.052;2023-02-13T13:33:33;95317.84;;;6.01;100.00
8334;BME280;4204;43.004;23.052;2023-02-13T13:36:06;95310.44;;;5.98;100.00
8334;BME280;4204;43.004;23.052;2023-02-13T13:38:50;95307.84;;;6.03;100.00
8334;BME280;4204;43.004;23.052;2023-02-13T13:41:29;95308.72;;;6.08;100.00
8334;BME280;4204;43.004;23.052;2023-02-13T13:44:24;95310.84;;;6.11;100.00
8334;BME280;4204;43.004;23.052;2023-02-13T13:47:01;95312.66;;;6.06;100.00
8334;BME280;4204;43.004;23.052;2023-02-13T13:49:36;95317.31;;;5.99;100.00
8334;BME280;4204;43.004;23.052;2023-02-13T13:52:25;95300.19;;;6.01;100.00